createdAt,value
2023-04-16T00:01:51.567Z,5.46
2023-04-16T00:04:18.514Z,5.46
2023-04-16T00:06:45.281Z,5.48
2023-04-16T00:09:12.059Z,5.49
2023-04-16T00:11:38.827Z,5.50
2023-04-16T00:14:05.789Z,5.53
2023-04-16T00:16:32.822Z,5.53
2023-04-16T00:18:59.530Z,5.51
2023-04-16T00:21:26.718Z,5.48
2023-04-16T00:23:53.705Z,5.44
2023-04-16T00:26:20.658Z,5.42
2023-04-16T00:28:47.858Z,5.41
2023-04-16T00:31:14.866Z,5.42
2023-04-16T00:33:41.736Z,5.40
2023-04-16T00:36:09.661Z,5.37
2023-04-16T00:38:37.349Z,5.31
2023-04-16T00:41:04.111Z,5.26
2023-04-16T00:43:31.757Z,5.22
2023-04-16T00:45:59.058Z,5.20
2023-04-16T00:48:28.298Z,5.20
2023-04-16T00:50:55.979Z,5.18
2023-04-16T00:53:23.529Z,5.16
2023-04-16T00:55:51.025Z,5.12
2023-04-16T00:58:18.360Z,5.07
2023-04-16T01:00:45.495Z,5.01
2023-04-16T01:03:12.533Z,4.96
2023-04-16T01:05:39.572Z,4.91
2023-04-16T01:08:06.629Z,4.87
2023-04-16T01:10:33.356Z,4.83
2023-04-16T01:13:00.525Z,4.78
2023-04-16T01:15:27.418Z,4.75
2023-04-16T01:17:56.932Z,4.72
2023-04-16T01:20:23.668Z,4.68
2023-04-16T01:22:50.439Z,4.60
2023-04-16T01:25:17.220Z,4.53
2023-04-16T01:27:44.597Z,4.50
2023-04-16T01:30:11.754Z,4.48
2023-04-16T01:32:48.049Z,4.48
2023-04-16T01:35:15.109Z,4.46
2023-04-16T01:37:41.850Z,4.43
2023-04-16T01:40:11.173Z,4.42
2023-04-16T01:42:38.625Z,4.39
2023-04-16T01:45:06.269Z,4.32
2023-04-16T01:47:33.089Z,4.23
2023-04-16T01:50:00.963Z,4.14
2023-04-16T01:52:27.725Z,4.22
2023-04-16T01:54:54.500Z,4.38
2023-04-16T01:57:21.258Z,4.50
2023-04-16T01:59:48.097Z,4.60
2023-04-16T02:02:16.677Z,4.68
2023-04-16T02:04:45.943Z,4.76
2023-04-16T02:07:12.905Z,4.83
2023-04-16T02:09:41.012Z,4.89
2023-04-16T02:12:11.464Z,4.93
2023-04-16T02:14:38.353Z,4.96
2023-04-16T02:17:05.132Z,4.96
2023-04-16T02:19:38.424Z,4.94
2023-04-16T02:22:05.575Z,4.90
2023-04-16T02:24:32.381Z,4.86
2023-04-16T02:26:59.796Z,4.83
2023-04-16T02:29:26.672Z,4.79
2023-04-16T02:31:59.764Z,4.74
2023-04-16T02:34:27.666Z,4.67
2023-04-16T02:36:55.084Z,4.61
2023-04-16T02:39:22.224Z,4.52
2023-04-16T02:41:48.995Z,4.44
2023-04-16T02:44:20.171Z,4.34
2023-04-16T02:46:47.440Z,4.25
2023-04-16T02:49:14.466Z,4.18
2023-04-16T02:51:41.272Z,4.12
2023-04-16T02:54:08.040Z,4.08
2023-04-16T02:56:35.066Z,4.02
2023-04-16T02:59:01.818Z,3.96
2023-04-16T03:01:29.132Z,3.88
2023-04-16T03:03:56.462Z,3.80
2023-04-16T03:06:23.384Z,3.75
2023-04-16T03:08:51.204Z,3.71
2023-04-16T03:11:18.070Z,3.69
2023-04-16T03:13:45.017Z,3.69
2023-04-16T03:16:11.785Z,3.71
2023-04-16T03:18:38.880Z,3.73
2023-04-16T03:21:06.408Z,3.72
2023-04-16T03:23:33.606Z,3.65
2023-04-16T03:26:00.344Z,3.60
2023-04-16T03:28:27.469Z,3.57
2023-04-16T03:30:54.459Z,3.58
2023-04-16T03:33:22.871Z,3.62
2023-04-16T03:35:58.559Z,3.70
2023-04-16T03:38:27.233Z,3.75
2023-04-16T03:40:55.727Z,3.75
2023-04-16T03:43:22.598Z,3.71
2023-04-16T03:45:49.969Z,3.65
2023-04-16T03:48:20.327Z,3.60
2023-04-16T03:50:48.560Z,3.61
2023-04-16T03:53:16.769Z,3.65
2023-04-16T03:55:43.900Z,3.71
2023-04-16T03:58:10.893Z,3.78
2023-04-16T04:00:37.734Z,3.89
2023-04-16T04:03:09.482Z,4.01
2023-04-16T04:05:39.404Z,4.08
2023-04-16T04:08:07.129Z,4.16
2023-04-16T04:10:35.267Z,4.27
2023-04-16T04:13:05.021Z,4.36
2023-04-16T04:15:32.773Z,4.47
2023-04-16T04:18:00.315Z,4.57
2023-04-16T04:20:28.133Z,4.70
2023-04-16T04:22:54.990Z,4.80
2023-04-16T04:25:23.899Z,4.88
2023-04-16T04:27:50.900Z,4.95
2023-04-16T04:30:17.816Z,4.98
2023-04-16T04:32:44.593Z,5.03
2023-04-16T04:35:11.477Z,5.12
2023-04-16T04:37:38.317Z,5.20
2023-04-16T04:40:12.338Z,5.29
2023-04-16T04:42:39.231Z,5.40
2023-04-16T04:45:06.620Z,5.50
2023-04-16T04:47:34.003Z,5.61
2023-04-16T04:50:00.745Z,5.69
2023-04-16T04:52:28.206Z,5.78
2023-04-16T04:54:55.036Z,5.85
2023-04-16T04:57:21.896Z,5.93
2023-04-16T04:59:51.084Z,6.03
2023-04-16T05:02:17.969Z,6.15
2023-04-16T05:04:44.884Z,6.22
2023-04-16T05:07:11.636Z,6.29
2023-04-16T05:09:38.410Z,6.35
2023-04-16T05:12:05.502Z,6.39
2023-04-16T05:14:32.178Z,6.44
2023-04-16T05:16:58.970Z,6.50
2023-04-16T05:19:25.776Z,6.58
2023-04-16T05:21:52.538Z,6.63
2023-04-16T05:24:20.338Z,6.70
2023-04-16T05:26:47.045Z,6.80
2023-04-16T05:29:13.943Z,6.90
2023-04-16T05:31:42.231Z,7.03
2023-04-16T05:34:11.611Z,7.10
2023-04-16T05:36:38.530Z,7.18
2023-04-16T05:39:05.315Z,7.25
2023-04-16T05:41:32.116Z,7.31
2023-04-16T05:43:58.860Z,7.35
2023-04-16T05:46:26.658Z,7.41
2023-04-16T05:48:53.365Z,7.47
2023-04-16T05:51:23.019Z,7.55
2023-04-16T05:53:49.993Z,7.62
2023-04-16T05:56:16.795Z,7.68
2023-04-16T05:58:43.477Z,7.77
2023-04-16T06:01:11.543Z,7.93
2023-04-16T06:03:38.449Z,8.06
2023-04-16T06:06:05.544Z,8.14
2023-04-16T06:08:32.356Z,8.25
2023-04-16T06:10:59.131Z,8.38
2023-04-16T06:13:25.896Z,8.49
2023-04-16T06:15:53.785Z,8.60
2023-04-16T06:18:20.532Z,8.71
2023-04-16T06:20:47.648Z,8.80
2023-04-16T06:23:14.476Z,8.89
2023-04-16T06:25:41.596Z,8.97
2023-04-16T06:28:08.301Z,8.99
2023-04-16T06:30:35.084Z,9.10
2023-04-16T06:33:02.103Z,9.31
2023-04-16T06:35:28.886Z,9.52
2023-04-16T06:37:55.613Z,9.78
2023-04-16T06:40:22.694Z,9.96
2023-04-16T06:42:49.518Z,10.15
2023-04-16T06:45:17.493Z,10.37
2023-04-16T06:47:44.515Z,10.62
2023-04-16T06:50:11.519Z,10.99
2023-04-16T06:52:38.478Z,11.35
2023-04-16T06:55:07.274Z,11.57
2023-04-16T06:57:36.209Z,11.84
2023-04-16T07:00:05.319Z,12.20
2023-04-16T07:02:32.260Z,12.72
2023-04-16T07:04:59.274Z,13.21
2023-04-16T07:07:25.972Z,13.76
2023-04-16T07:09:52.727Z,14.19
2023-04-16T07:12:22.484Z,14.31
2023-04-16T07:14:49.796Z,14.32
2023-04-16T07:17:16.599Z,14.27
2023-04-16T07:19:58.993Z,14.19
2023-04-16T07:22:25.992Z,14.22
2023-04-16T07:24:52.737Z,14.38
2023-04-16T07:27:19.492Z,14.72
2023-04-16T07:29:46.625Z,15.26
2023-04-16T07:32:14.821Z,15.92
2023-04-16T07:34:42.588Z,16.27
2023-04-16T07:37:09.435Z,16.29
2023-04-16T07:39:36.190Z,16.50
2023-04-16T07:42:02.974Z,16.63
2023-04-16T07:44:29.926Z,16.82
2023-04-16T07:46:56.755Z,16.82
2023-04-16T07:49:23.610Z,16.66
2023-04-16T07:51:50.537Z,16.54
2023-04-16T07:54:17.758Z,16.40
2023-04-16T07:56:44.512Z,16.12
2023-04-16T07:59:21.796Z,15.86
2023-04-16T08:01:50.393Z,15.78
2023-04-16T08:04:23.232Z,15.58
2023-04-16T08:06:51.649Z,15.48
2023-04-16T08:09:20.255Z,15.57
2023-04-16T08:11:49.317Z,15.68
2023-04-16T08:14:17.034Z,15.81
2023-04-16T08:16:44.012Z,16.06
2023-04-16T08:19:10.954Z,16.38
2023-04-16T08:21:38.043Z,17.11
2023-04-16T08:24:04.798Z,17.72
2023-04-16T08:26:31.622Z,17.97
2023-04-16T08:28:58.385Z,18.02
2023-04-16T08:31:25.222Z,17.97
2023-04-16T08:33:51.905Z,18.02
2023-04-16T08:36:18.902Z,18.30
2023-04-16T08:38:45.675Z,18.56
2023-04-16T08:41:13.564Z,18.85
2023-04-16T08:43:46.956Z,19.17
2023-04-16T08:46:17.449Z,19.45
2023-04-16T08:48:48.858Z,19.86
2023-04-16T08:51:18.200Z,20.23
2023-04-16T08:53:53.981Z,20.66
2023-04-16T08:56:23.739Z,21.14
2023-04-16T08:58:53.885Z,21.31
2023-04-16T09:01:22.269Z,21.64
2023-04-16T09:03:49.432Z,21.60
2023-04-16T09:06:16.981Z,21.52
2023-04-16T09:08:46.408Z,21.59
2023-04-16T09:11:17.551Z,21.69
2023-04-16T09:13:46.244Z,21.73
2023-04-16T09:16:14.277Z,21.74
2023-04-16T09:18:42.057Z,21.80
2023-04-16T09:21:11.187Z,21.76
2023-04-16T09:23:39.055Z,22.02
2023-04-16T09:26:06.197Z,22.20
2023-04-16T09:28:41.045Z,22.58
2023-04-16T09:31:09.823Z,22.94
2023-04-16T09:33:36.701Z,23.12
2023-04-16T09:36:03.660Z,23.31
2023-04-16T09:38:47.066Z,23.64
2023-04-16T09:41:16.992Z,23.95
2023-04-16T09:44:00.009Z,23.88
2023-04-16T09:46:31.946Z,23.81
2023-04-16T09:48:58.827Z,23.97
2023-04-16T09:51:27.050Z,24.09
2023-04-16T09:53:54.903Z,23.62
2023-04-16T09:56:26.029Z,23.08
2023-04-16T09:58:58.230Z,22.63
2023-04-16T10:01:25.660Z,21.97
2023-04-16T10:03:54.951Z,21.56
2023-04-16T10:06:23.678Z,21.06
2023-04-16T10:08:52.723Z,20.70
2023-04-16T10:11:21.329Z,20.27
2023-04-16T10:13:48.822Z,20.08
2023-04-16T10:16:16.062Z,20.07
2023-04-16T10:18:44.824Z,20.23
2023-04-16T10:21:12.848Z,20.46
2023-04-16T10:23:40.379Z,20.69
2023-04-16T10:26:07.476Z,20.66
2023-04-16T10:28:35.713Z,20.58
2023-04-16T10:31:04.494Z,20.43
2023-04-16T10:33:34.555Z,20.15
2023-04-16T10:36:10.059Z,19.88
2023-04-16T10:38:41.886Z,19.39
2023-04-16T10:41:09.732Z,19.16
2023-04-16T10:43:41.848Z,19.02
2023-04-16T10:46:27.024Z,19.02
2023-04-16T10:48:54.911Z,19.12
2023-04-16T10:51:28.202Z,19.20
2023-04-16T10:54:02.598Z,19.28
2023-04-16T10:56:33.274Z,19.40
2023-04-16T10:58:59.992Z,19.72
2023-04-16T11:01:31.525Z,20.15
2023-04-16T11:04:00.950Z,20.63
2023-04-16T11:06:28.781Z,21.00
2023-04-16T11:08:55.911Z,21.15
2023-04-16T11:11:23.545Z,20.94
2023-04-16T11:13:56.465Z,20.61
2023-04-16T11:16:26.069Z,20.18
2023-04-16T11:18:55.010Z,19.83
2023-04-16T11:21:24.059Z,19.41
2023-04-16T11:23:52.720Z,19.14
2023-04-16T11:26:26.080Z,19.02
2023-04-16T11:28:54.364Z,18.85
2023-04-16T11:31:21.530Z,18.80
2023-04-16T11:33:48.862Z,19.04
2023-04-16T11:36:15.751Z,19.58
2023-04-16T11:38:43.032Z,20.27
2023-04-16T11:41:11.125Z,20.77
2023-04-16T11:43:38.119Z,21.22
2023-04-16T11:46:20.075Z,21.64
2023-04-16T11:48:53.876Z,21.96
2023-04-16T11:51:23.644Z,22.31
2023-04-16T11:53:53.811Z,22.64
2023-04-16T11:56:29.574Z,23.24
2023-04-16T11:59:13.149Z,24.02
2023-04-16T12:01:42.206Z,24.85
2023-04-16T12:04:09.632Z,25.59
2023-04-16T12:06:36.833Z,26.39
2023-04-16T12:09:24.550Z,27.13
2023-04-16T12:11:51.663Z,27.58
2023-04-16T12:14:18.628Z,28.07
2023-04-16T12:16:45.684Z,28.55
2023-04-16T12:19:13.138Z,28.59
2023-04-16T12:21:42.531Z,28.61
2023-04-16T12:24:13.488Z,28.63
2023-04-16T12:26:44.018Z,28.38
2023-04-16T12:29:28.001Z,27.96
2023-04-16T12:31:54.817Z,27.37
2023-04-16T12:34:28.956Z,26.76
2023-04-16T12:37:10.981Z,26.15
2023-04-16T12:39:37.757Z,25.66
2023-04-16T12:42:06.408Z,25.29
2023-04-16T12:44:33.163Z,25.09
2023-04-16T12:46:59.954Z,25.03
2023-04-16T12:49:26.702Z,24.97
2023-04-16T12:51:53.466Z,24.74
2023-04-16T12:54:20.257Z,24.47
2023-04-16T12:56:47.083Z,24.20
2023-04-16T12:59:13.804Z,23.94
2023-04-16T13:01:40.658Z,23.67
2023-04-16T13:04:07.776Z,23.17
2023-04-16T13:06:36.792Z,22.65
2023-04-16T13:09:04.756Z,22.15
2023-04-16T13:11:32.437Z,21.67
2023-04-16T13:13:59.435Z,21.29
2023-04-16T13:16:26.432Z,21.12
2023-04-16T13:18:53.350Z,21.47
2023-04-16T13:21:20.091Z,22.14
2023-04-16T13:23:46.859Z,22.84
2023-04-16T13:26:15.548Z,23.45
2023-04-16T13:28:42.273Z,23.95
2023-04-16T13:31:09.435Z,24.49
2023-04-16T13:33:36.378Z,24.96
2023-04-16T13:36:03.217Z,25.50
2023-04-16T13:38:29.911Z,26.00
2023-04-16T13:40:56.623Z,26.48
2023-04-16T13:43:23.438Z,26.82
2023-04-16T13:45:50.415Z,27.13
2023-04-16T13:48:18.027Z,27.34
2023-04-16T13:50:44.805Z,27.08
2023-04-16T13:53:11.569Z,26.62
2023-04-16T13:55:38.500Z,26.14
2023-04-16T13:58:07.239Z,25.77
2023-04-16T14:00:34.228Z,25.73
2023-04-16T14:03:01.217Z,25.42
2023-04-16T14:05:28.108Z,25.01
2023-04-16T14:07:54.839Z,24.71
2023-04-16T14:10:21.633Z,24.55
2023-04-16T14:12:48.586Z,24.55
2023-04-16T14:15:15.386Z,24.59
2023-04-16T14:17:43.408Z,24.29
2023-04-16T14:20:12.718Z,23.86
2023-04-16T14:22:39.952Z,23.39
2023-04-16T14:25:07.315Z,23.02
2023-04-16T14:27:34.363Z,22.65
2023-04-16T14:30:01.555Z,22.31
2023-04-16T14:32:28.393Z,22.12
2023-04-16T14:34:55.146Z,22.01
2023-04-16T14:37:22.038Z,21.98
2023-04-16T14:39:50.523Z,21.95
2023-04-16T14:42:17.427Z,21.88
2023-04-16T14:44:44.226Z,21.75
2023-04-16T14:47:11.328Z,21.61
2023-04-16T14:49:38.132Z,21.43
2023-04-16T14:52:05.880Z,21.25
2023-04-16T14:54:33.805Z,21.11
2023-04-16T14:57:02.127Z,20.98
2023-04-16T14:59:28.917Z,20.88
2023-04-16T15:01:57.006Z,20.77
2023-04-16T15:04:24.732Z,20.60
2023-04-16T15:06:51.741Z,20.44
2023-04-16T15:09:18.545Z,20.33
2023-04-16T15:11:45.855Z,20.25
2023-04-16T15:14:12.904Z,20.15
2023-04-16T15:16:40.017Z,20.02
2023-04-16T15:19:07.098Z,19.91
2023-04-16T15:21:33.874Z,19.83
2023-04-16T15:24:00.631Z,19.77
2023-04-16T15:26:27.661Z,19.71
2023-04-16T15:28:54.434Z,19.66
2023-04-16T15:31:21.301Z,19.59
2023-04-16T15:33:48.852Z,19.52
2023-04-16T15:36:16.128Z,19.44
2023-04-16T15:38:42.961Z,19.34
2023-04-16T15:41:10.607Z,19.24
2023-04-16T15:43:37.411Z,19.14
2023-04-16T15:46:04.668Z,19.00
2023-04-16T15:48:31.447Z,18.87
2023-04-16T15:50:58.237Z,18.76
2023-04-16T15:53:40.782Z,18.65
2023-04-16T15:56:07.590Z,18.53
2023-04-16T15:58:34.409Z,18.41
2023-04-16T16:01:02.597Z,18.31
2023-04-16T16:03:29.893Z,18.22
2023-04-16T16:05:59.247Z,18.15
2023-04-16T16:08:26.457Z,18.08
2023-04-16T16:10:53.280Z,18.00
2023-04-16T16:13:19.996Z,17.91
2023-04-16T16:15:46.759Z,17.81
2023-04-16T16:18:13.566Z,17.71
2023-04-16T16:20:40.735Z,17.59
2023-04-16T16:23:07.846Z,17.51
2023-04-16T16:25:34.640Z,17.42
2023-04-16T16:28:02.217Z,17.34
2023-04-16T16:30:30.669Z,17.24
2023-04-16T16:32:57.939Z,17.16
2023-04-16T16:35:26.209Z,17.07
2023-04-16T16:37:55.823Z,16.97
2023-04-16T16:40:23.288Z,16.87
2023-04-16T16:42:52.180Z,16.79
2023-04-16T16:45:19.407Z,16.68
2023-04-16T16:47:46.830Z,16.56
2023-04-16T16:50:13.760Z,16.46
2023-04-16T16:52:40.578Z,16.36
2023-04-16T16:55:11.058Z,16.26
2023-04-16T16:57:39.003Z,16.16
2023-04-16T17:00:11.525Z,16.06
2023-04-16T17:02:38.964Z,15.94
2023-04-16T17:05:07.626Z,15.81
2023-04-16T17:07:34.367Z,15.69
2023-04-16T17:10:03.642Z,15.58
2023-04-16T17:12:32.210Z,15.46
2023-04-16T17:14:59.018Z,15.34
2023-04-16T17:17:27.013Z,15.23
2023-04-16T17:19:54.166Z,15.12
2023-04-16T17:22:21.736Z,15.00
2023-04-16T17:24:48.461Z,14.89
2023-04-16T17:27:15.149Z,14.78
2023-04-16T17:29:41.884Z,14.67
2023-04-16T17:32:08.660Z,14.57
2023-04-16T17:34:35.498Z,14.45
2023-04-16T17:37:02.282Z,14.33
2023-04-16T17:39:29.573Z,14.23
2023-04-16T17:41:58.605Z,14.11
2023-04-16T17:44:27.495Z,13.98
2023-04-16T17:46:54.319Z,13.89
2023-04-16T17:49:21.286Z,13.77
2023-04-16T17:51:48.953Z,13.64
2023-04-16T17:54:15.846Z,13.50
2023-04-16T17:56:42.687Z,13.36
2023-04-16T17:59:09.492Z,13.23
2023-04-16T18:01:36.223Z,13.09
2023-04-16T18:04:03.177Z,12.94
2023-04-16T18:06:31.016Z,12.79
2023-04-16T18:08:58.379Z,12.63
2023-04-16T18:11:25.060Z,12.50
2023-04-16T18:13:53.862Z,12.35
2023-04-16T18:16:20.787Z,12.19
2023-04-16T18:18:47.993Z,12.06
2023-04-16T18:21:14.806Z,11.94
2023-04-16T18:23:41.660Z,11.83
2023-04-16T18:26:09.464Z,11.76
2023-04-16T18:28:38.038Z,11.69
2023-04-16T18:31:06.847Z,11.61
2023-04-16T18:33:54.219Z,11.55
2023-04-16T18:36:21.130Z,11.45
2023-04-16T18:39:00.301Z,11.36
2023-04-16T18:41:28.393Z,11.25
2023-04-16T18:43:55.620Z,11.13
2023-04-16T18:46:22.717Z,11.01
2023-04-16T18:48:49.823Z,10.86
2023-04-16T18:51:16.910Z,10.73
2023-04-16T18:53:45.764Z,10.62
2023-04-16T18:56:12.852Z,10.51
2023-04-16T18:58:39.774Z,10.41
2023-04-16T19:01:11.010Z,10.32
2023-04-16T19:03:38.641Z,10.24
2023-04-16T19:06:06.406Z,10.19
2023-04-16T19:08:48.696Z,10.12
2023-04-16T19:11:15.701Z,10.03
2023-04-16T19:13:44.569Z,9.91
2023-04-16T19:16:13.346Z,9.79
2023-04-16T19:18:40.258Z,9.70
2023-04-16T19:21:07.286Z,9.62
2023-04-16T19:23:34.144Z,9.56
2023-04-16T19:26:01.602Z,9.46
2023-04-16T19:28:28.778Z,9.42
2023-04-16T19:30:56.152Z,9.37
2023-04-16T19:33:23.098Z,9.33
2023-04-16T19:35:49.904Z,9.27
2023-04-16T19:38:16.714Z,9.17
2023-04-16T19:40:46.658Z,9.04
2023-04-16T19:43:13.951Z,8.92
2023-04-16T19:45:53.411Z,8.83
2023-04-16T19:48:21.509Z,8.78
2023-04-16T19:50:48.763Z,8.76
2023-04-16T19:53:17.222Z,8.73
2023-04-16T19:55:43.977Z,8.66
2023-04-16T19:58:10.835Z,8.59
2023-04-16T20:00:38.915Z,8.53
2023-04-16T20:03:06.331Z,8.44
2023-04-16T20:05:33.192Z,8.33
2023-04-16T20:08:00.393Z,8.23
2023-04-16T20:10:27.788Z,8.14
2023-04-16T20:12:54.492Z,8.08
2023-04-16T20:15:21.858Z,8.03
2023-04-16T20:17:48.609Z,8.00
2023-04-16T20:20:16.454Z,7.96
2023-04-16T20:22:43.777Z,7.92
2023-04-16T20:25:10.626Z,7.86
2023-04-16T20:27:37.503Z,7.78
2023-04-16T20:30:06.425Z,7.69
2023-04-16T20:32:33.278Z,7.61
2023-04-16T20:35:00.435Z,7.54
2023-04-16T20:37:29.164Z,7.49
2023-04-16T20:39:56.387Z,7.48
2023-04-16T20:42:26.394Z,7.45
2023-04-16T20:44:56.496Z,7.42
2023-04-16T20:47:23.860Z,7.38
2023-04-16T20:49:52.708Z,7.32
2023-04-16T20:52:19.758Z,7.25
2023-04-16T20:54:47.171Z,7.20
2023-04-16T20:57:14.160Z,7.14
2023-04-16T20:59:40.986Z,7.11
2023-04-16T21:02:07.989Z,7.08
2023-04-16T21:04:35.559Z,7.05
2023-04-16T21:07:04.354Z,7.01
2023-04-16T21:09:31.585Z,6.95
2023-04-16T21:11:58.588Z,6.89
2023-04-16T21:14:25.375Z,6.80
2023-04-16T21:16:52.150Z,6.71
2023-04-16T21:19:19.003Z,6.67
2023-04-16T21:21:45.999Z,6.61
2023-04-16T21:24:12.707Z,6.57
2023-04-16T21:26:39.417Z,6.52
2023-04-16T21:29:06.188Z,6.49
2023-04-16T21:31:32.935Z,6.45
2023-04-16T21:34:00.077Z,6.39
2023-04-16T21:36:27.772Z,6.32
2023-04-16T21:38:55.039Z,6.26
2023-04-16T21:41:21.784Z,6.22
2023-04-16T21:43:48.759Z,6.18
2023-04-16T21:46:15.508Z,6.14
2023-04-16T21:48:42.266Z,6.11
2023-04-16T21:51:10.101Z,6.07
2023-04-16T21:53:38.701Z,6.03
2023-04-16T21:56:06.480Z,5.98
2023-04-16T21:58:33.294Z,5.92
2023-04-16T22:01:00.031Z,5.87
2023-04-16T22:03:28.296Z,5.81
2023-04-16T22:06:00.930Z,5.80
2023-04-16T22:08:30.688Z,5.82
2023-04-16T22:11:00.207Z,5.82
2023-04-16T22:13:27.905Z,5.81
2023-04-16T22:15:55.527Z,5.81
2023-04-16T22:18:25.521Z,5.80
2023-04-16T22:20:54.980Z,5.76
2023-04-16T22:23:23.468Z,5.71
2023-04-16T22:25:50.975Z,5.65
2023-04-16T22:28:17.959Z,5.63
2023-04-16T22:30:44.689Z,5.62
2023-04-16T22:33:11.511Z,5.61
2023-04-16T22:35:38.301Z,5.58
2023-04-16T22:38:05.561Z,5.54
2023-04-16T22:40:32.303Z,5.49
2023-04-16T22:42:59.153Z,5.41
2023-04-16T22:45:27.264Z,5.35
2023-04-16T22:47:54.137Z,5.29
2023-04-16T22:50:21.072Z,5.27
2023-04-16T22:52:47.800Z,5.26
2023-04-16T22:55:14.614Z,5.24
2023-04-16T22:57:42.060Z,5.21
2023-04-16T23:00:15.665Z,5.16
2023-04-16T23:02:43.253Z,5.12
2023-04-16T23:05:10.920Z,5.07
2023-04-16T23:07:37.667Z,4.99
2023-04-16T23:10:04.846Z,4.91
2023-04-16T23:12:31.572Z,4.85
2023-04-16T23:14:58.460Z,4.82
2023-04-16T23:17:25.265Z,4.82
2023-04-16T23:19:52.177Z,4.82
2023-04-16T23:22:18.926Z,4.80
2023-04-16T23:24:45.802Z,4.78
2023-04-16T23:27:12.663Z,4.75
2023-04-16T23:29:39.477Z,4.69
2023-04-16T23:32:06.247Z,4.63
2023-04-16T23:34:33.033Z,4.58
2023-04-16T23:36:59.804Z,4.53
2023-04-16T23:39:27.249Z,4.50
2023-04-16T23:41:54.016Z,4.50
2023-04-16T23:44:20.727Z,4.50
2023-04-16T23:46:47.708Z,4.50
2023-04-16T23:49:14.487Z,4.50
2023-04-16T23:51:41.298Z,4.49
2023-04-16T23:54:08.044Z,4.46
2023-04-16T23:56:34.740Z,4.46
2023-04-16T23:59:01.672Z,4.48
